Time;durP1;ratioP1;P1;durP2;ratioP2;P2;SDS_P1;SDS_P2;PMS_P1;PMS_P2;Temp;Humidity;BMP_temperature;BMP_pressure;BME280_temperature;BME280_humidity;BME280_pressure;Samples;Min_cycle;Max_cycle;Signal;HPM_P1;HPM_P2
2023/06/19 00:01:30;;;;;;;12.85;9.90;;;;;;;;;;5100328;28;20023;-71
2023/06/19 00:03:57;;;;;;;14.68;9.85;;;;;;;;;;5099628;28;20032;-72
2023/06/19 00:06:22;;;;;;;11.98;9.57;;;;;;;;;;5099436;28;20460;-70
2023/06/19 00:08:50;;;;;;;13.32;10.02;;;;;;;;;;5099386;28;20024;-71
2023/06/19 00:11:17;;;;;;;12.77;10.18;;;;;;;;;;5099680;28;20383;-70
2023/06/19 00:13:43;;;;;;;12.40;10.10;;;;;;;;;;5100011;28;20020;-71
2023/06/19 00:16:09;;;;;;;12.85;10.63;;;;;;;;;;5097854;28;20024;-71
2023/06/19 00:18:39;;;;;;;16.80;11.40;;;;;;;;;;5098833;28;20042;-73
2023/06/19 00:21:05;;;;;;;13.23;10.43;;;;;;;;;;5099441;28;20035;-71
2023/06/19 00:23:31;;;;;;;14.45;10.60;;;;;;;;;;5099301;28;20024;-70
2023/06/19 00:26:00;;;;;;;14.70;11.25;;;;;;;;;;5098345;28;20031;-71
2023/06/19 00:28:38;;;;;;;14.80;11.30;;;;;;;;;;5081242;28;20056;-71
2023/06/19 00:31:06;;;;;;;15.70;11.00;;;;;;;;;;5099864;28;20019;-70
2023/06/19 00:33:32;;;;;;;14.48;11.32;;;;;;;;;;5081404;28;20481;-71
2023/06/19 00:35:57;;;;;;;13.97;10.90;;;;;;;;;;5081506;28;20107;-70
2023/06/19 00:38:23;;;;;;;19.92;10.93;;;;;;;;;;5099319;28;20646;-71
2023/06/19 00:40:49;;;;;;;13.65;11.15;;;;;;;;;;5099194;28;20028;-72
2023/06/19 00:43:16;;;;;;;15.60;11.32;;;;;;;;;;5097810;28;20023;-70
2023/06/19 00:45:42;;;;;;;14.00;11.70;;;;;;;;;;5095849;28;20027;-70
2023/06/19 00:48:09;;;;;;;18.45;12.43;;;;;;;;;;5095814;28;20619;-72
2023/06/19 00:50:37;;;;;;;17.02;11.32;;;;;;;;;;5077443;28;20032;-70
2023/06/19 00:53:04;;;;;;;16.95;12.07;;;;;;;;;;5078065;28;20121;-72
2023/06/19 00:55:39;;;;;;;17.33;12.30;;;;;;;;;;5061107;28;20044;-71
2023/06/19 00:58:13;;;;;;;15.82;12.18;;;;;;;;;;5077544;28;20020;-72
2023/06/19 01:00:38;;;;;;;13.10;11.40;;;;;;;;;;5095942;28;20020;-72
2023/06/19 01:03:03;;;;;;;14.43;11.73;;;;;;;;;;5077137;28;20042;-73
2023/06/19 01:05:31;;;;;;;15.00;11.45;;;;;;;;;;5077499;28;20312;-72
2023/06/19 01:07:56;;;;;;;16.55;11.65;;;;;;;;;;5077454;28;20157;-72
2023/06/19 01:10:25;;;;;;;18.42;11.15;;;;;;;;;;5095770;28;20028;-73
2023/06/19 01:12:55;;;;;;;14.10;11.15;;;;;;;;;;5095498;28;20035;-72
2023/06/19 01:15:23;;;;;;;15.00;11.35;;;;;;;;;;5077217;28;20062;-72
2023/06/19 01:17:49;;;;;;;15.13;11.40;;;;;;;;;;5094656;28;20016;-72
2023/06/19 01:20:21;;;;;;;16.63;11.57;;;;;;;;;;5094197;28;20119;-73
2023/06/19 01:23:05;;;;;;;17.30;11.27;;;;;;;;;;5094041;28;20460;-73
2023/06/19 01:25:33;;;;;;;18.55;12.25;;;;;;;;;;5094391;28;20020;-70
2023/06/19 01:28:04;;;;;;;15.38;11.77;;;;;;;;;;5085364;28;20435;-73
2023/06/19 01:30:29;;;;;;;17.58;12.60;;;;;;;;;;5073924;28;20453;-72
2023/06/19 01:33:04;;;;;;;15.13;12.13;;;;;;;;;;5073760;28;20107;-72
2023/06/19 01:35:31;;;;;;;16.80;11.93;;;;;;;;;;5073752;28;20351;-73
2023/06/19 01:37:57;;;;;;;18.30;12.07;;;;;;;;;;5073487;28;20017;-73
2023/06/19 01:40:25;;;;;;;18.52;12.32;;;;;;;;;;5073715;28;20024;-72
2023/06/19 01:42:51;;;;;;;17.40;12.02;;;;;;;;;;5073959;28;20020;-72
2023/06/19 01:45:17;;;;;;;17.42;12.93;;;;;;;;;;5055503;28;20017;-71
2023/06/19 01:47:43;;;;;;;15.98;12.50;;;;;;;;;;5073465;28;20017;-72
2023/06/19 01:50:11;;;;;;;15.82;11.73;;;;;;;;;;5055368;28;20035;-72
2023/06/19 01:52:38;;;;;;;18.85;12.00;;;;;;;;;;5074432;28;20013;-71
2023/06/19 01:55:04;;;;;;;17.02;12.65;;;;;;;;;;5055857;28;20050;-72
2023/06/19 01:57:29;;;;;;;16.52;12.68;;;;;;;;;;5074327;28;20364;-72
2023/06/19 01:59:55;;;;;;;17.20;11.82;;;;;;;;;;5056293;28;20123;-74
2023/06/19 02:02:21;;;;;;;18.58;13.10;;;;;;;;;;5074551;28;20009;-71
2023/06/19 02:04:48;;;;;;;18.23;12.65;;;;;;;;;;5074181;28;20078;-73
2023/06/19 02:07:14;;;;;;;17.70;12.30;;;;;;;;;;5054994;28;20028;-71
2023/06/19 02:09:40;;;;;;;16.52;12.43;;;;;;;;;;5056198;28;20021;-73
2023/06/19 02:12:06;;;;;;;17.17;12.32;;;;;;;;;;5056612;28;20103;-71
2023/06/19 02:14:31;;;;;;;18.30;12.35;;;;;;;;;;5074195;28;20100;-72
2023/06/19 02:16:57;;;;;;;16.13;12.40;;;;;;;;;;5074229;28;20028;-72
2023/06/19 02:19:24;;;;;;;16.20;12.88;;;;;;;;;;5074454;28;20063;-72
2023/06/19 02:21:51;;;;;;;17.00;12.40;;;;;;;;;;5073713;28;20017;-73
2023/06/19 02:24:17;;;;;;;18.05;12.68;;;;;;;;;;5073741;28;20365;-72
2023/06/19 02:26:44;;;;;;;18.17;12.38;;;;;;;;;;5073906;28;20090;-71
2023/06/19 02:29:12;;;;;;;18.05;12.63;;;;;;;;;;5091772;28;20157;-71
2023/06/19 02:31:39;;;;;;;14.85;11.25;;;;;;;;;;5094693;28;20380;-71
2023/06/19 02:34:04;;;;;;;13.23;10.68;;;;;;;;;;5075588;28;20109;-72
2023/06/19 02:36:31;;;;;;;15.40;11.88;;;;;;;;;;5093715;28;20427;-71
2023/06/19 02:38:58;;;;;;;16.90;11.38;;;;;;;;;;5093852;28;20044;-72
2023/06/19 02:41:24;;;;;;;18.45;14.07;;;;;;;;;;5094216;28;20016;-73
2023/06/19 02:43:50;;;;;;;26.35;20.92;;;;;;;;;;5093639;28;20024;-72
2023/06/19 02:46:15;;;;;;;18.45;12.45;;;;;;;;;;5093910;28;20027;-72
2023/06/19 02:48:41;;;;;;;21.57;13.77;;;;;;;;;;5093844;28;20027;-72
2023/06/19 02:51:08;;;;;;;15.25;12.27;;;;;;;;;;5093860;28;20274;-73
2023/06/19 02:53:34;;;;;;;17.48;12.68;;;;;;;;;;5093528;28;20024;-71
2023/06/19 02:56:01;;;;;;;19.55;12.95;;;;;;;;;;5093848;28;20020;-71
2023/06/19 02:58:27;;;;;;;17.60;12.55;;;;;;;;;;5093832;28;20047;-72
2023/06/19 03:00:53;;;;;;;15.77;12.57;;;;;;;;;;5093661;28;20012;-70
2023/06/19 03:03:18;;;;;;;17.38;12.57;;;;;;;;;;5075500;28;20085;-73
2023/06/19 03:05:44;;;;;;;18.13;13.43;;;;;;;;;;5093112;28;20020;-72
2023/06/19 03:08:10;;;;;;;18.20;13.45;;;;;;;;;;5092164;28;20039;-72
2023/06/19 03:10:37;;;;;;;16.30;13.25;;;;;;;;;;5093644;28;20407;-72
2023/06/19 03:13:05;;;;;;;27.45;20.33;;;;;;;;;;5091969;28;20566;-72
2023/06/19 03:15:30;;;;;;;18.40;13.30;;;;;;;;;;5092558;28;20234;-70
2023/06/19 03:17:56;;;;;;;19.07;12.13;;;;;;;;;;5093582;28;20489;-71
2023/06/19 03:20:23;;;;;;;18.88;13.48;;;;;;;;;;5093181;28;20270;-72
2023/06/19 03:22:49;;;;;;;15.88;12.85;;;;;;;;;;5092037;28;20035;-73
2023/06/19 03:25:16;;;;;;;16.40;13.23;;;;;;;;;;5093533;28;20067;-71
2023/06/19 03:27:42;;;;;;;19.88;13.95;;;;;;;;;;5093110;28;20052;-72
2023/06/19 03:30:08;;;;;;;19.55;14.07;;;;;;;;;;5093057;28;20421;-72
2023/06/19 03:32:34;;;;;;;18.67;14.57;;;;;;;;;;5093423;28;20024;-72
2023/06/19 03:34:59;;;;;;;20.73;14.02;;;;;;;;;;5075071;28;20460;-72
2023/06/19 03:37:26;;;;;;;23.77;15.75;;;;;;;;;;5089809;28;20119;-71
2023/06/19 03:39:52;;;;;;;21.27;15.13;;;;;;;;;;5092658;28;20310;-72
2023/06/19 03:42:18;;;;;;;22.38;15.15;;;;;;;;;;5093072;28;20020;-73
2023/06/19 03:44:45;;;;;;;19.00;14.07;;;;;;;;;;5093304;28;20020;-72
2023/06/19 03:47:10;;;;;;;19.60;14.38;;;;;;;;;;5092947;28;20054;-72
2023/06/19 03:49:39;;;;;;;19.60;13.73;;;;;;;;;;5093150;28;20578;-72
2023/06/19 03:52:05;;;;;;;18.75;13.15;;;;;;;;;;5093348;28;20283;-72
2023/06/19 03:54:31;;;;;;;17.48;13.35;;;;;;;;;;5092983;28;20078;-72
2023/06/19 03:56:56;;;;;;;19.60;13.85;;;;;;;;;;5093105;28;20020;-72
2023/06/19 03:59:23;;;;;;;18.02;11.90;;;;;;;;;;5092212;28;20024;-72
2023/06/19 04:01:48;;;;;;;15.20;11.52;;;;;;;;;;5092593;28;20020;-71
2023/06/19 04:04:13;;;;;;;16.03;11.83;;;;;;;;;;5093042;28;20367;-71
2023/06/19 04:06:39;;;;;;;13.57;11.27;;;;;;;;;;5093114;28;20345;-72
2023/06/19 04:09:05;;;;;;;15.67;11.97;;;;;;;;;;5092431;28;20262;-70
2023/06/19 04:11:31;;;;;;;16.02;12.20;;;;;;;;;;5092602;28;20300;-72
2023/06/19 04:13:56;;;;;;;17.80;11.93;;;;;;;;;;5091768;28;20435;-73
2023/06/19 04:16:22;;;;;;;14.63;11.13;;;;;;;;;;5092472;28;20266;-73
2023/06/19 04:18:48;;;;;;;13.32;10.90;;;;;;;;;;5077236;28;20293;-73
2023/06/19 04:21:15;;;;;;;14.88;10.90;;;;;;;;;;5096786;28;20379;-72
2023/06/19 04:23:42;;;;;;;15.35;11.68;;;;;;;;;;5092270;28;20519;-74
2023/06/19 04:26:09;;;;;;;11.95;9.40;;;;;;;;;;5096557;28;20046;-73
2023/06/19 04:28:36;;;;;;;13.75;10.07;;;;;;;;;;5096162;28;20123;-73
2023/06/19 04:31:02;;;;;;;13.75;10.50;;;;;;;;;;5088037;28;20028;-73
2023/06/19 04:33:32;;;;;;;14.50;11.30;;;;;;;;;;5086977;28;20021;-73
2023/06/19 04:35:57;;;;;;;13.05;10.10;;;;;;;;;;5080576;28;20368;-73
2023/06/19 04:38:26;;;;;;;16.92;10.70;;;;;;;;;;5076137;28;20497;-73
2023/06/19 04:40:53;;;;;;;16.85;11.07;;;;;;;;;;5076236;28;20016;-78
2023/06/19 04:43:18;;;;;;;14.73;11.60;;;;;;;;;;5076144;28;20066;-77
2023/06/19 04:45:44;;;;;;;15.60;11.50;;;;;;;;;;5058116;28;20024;-76
2023/06/19 04:48:11;;;;;;;12.95;10.88;;;;;;;;;;5075770;28;20025;-77
2023/06/19 04:50:37;;;;;;;14.45;10.55;;;;;;;;;;5076539;28;20017;-75
2023/06/19 04:53:02;;;;;;;16.23;11.02;;;;;;;;;;5076169;28;20016;-73
2023/06/19 04:55:30;;;;;;;15.52;11.65;;;;;;;;;;5076473;28;20150;-79
2023/06/19 04:57:55;;;;;;;14.27;11.65;;;;;;;;;;5076590;28;20016;-77
2023/06/19 05:00:33;;;;;;;17.42;12.60;;;;;;;;;;5075916;28;20020;-75
2023/06/19 05:03:00;;;;;;;13.23;11.82;;;;;;;;;;5080901;28;20149;-75
2023/06/19 05:05:27;;;;;;;17.30;13.43;;;;;;;;;;5089795;28;20040;-76
2023/06/19 05:07:56;;;;;;;16.23;12.07;;;;;;;;;;5077825;28;20110;-78
2023/06/19 05:10:23;;;;;;;18.80;12.02;;;;;;;;;;5079237;28;20012;-77
2023/06/19 05:12:48;;;;;;;19.33;12.95;;;;;;;;;;5095429;28;20097;-77
2023/06/19 05:15:15;;;;;;;17.10;12.88;;;;;;;;;;5095534;28;20464;-73
2023/06/19 05:17:41;;;;;;;21.92;12.73;;;;;;;;;;5095965;28;20025;-78
2023/06/19 05:20:07;;;;;;;25.23;12.15;;;;;;;;;;5093410;28;20097;-78
2023/06/19 05:22:34;;;;;;;21.83;12.65;;;;;;;;;;5075641;28;20019;-75
2023/06/19 05:25:06;;;;;;;20.35;11.35;;;;;;;;;;5071294;28;20036;-77
2023/06/19 05:27:32;;;;;;;;;;;;;;;;;;5055369;28;20131;-76
2023/06/19 05:30:05;;;;;;;14.65;11.23;;;;;;;;;;5071643;28;19966;-77
2023/06/19 05:32:30;;;;;;;14.98;11.13;;;;;;;;;;5072750;28;20044;-77
2023/06/19 05:34:56;;;;;;;12.73;10.37;;;;;;;;;;5067407;28;20071;-78
2023/06/19 05:37:28;;;;;;;15.52;11.15;;;;;;;;;;5073043;28;20262;-79
2023/06/19 05:39:53;;;;;;;13.25;11.35;;;;;;;;;;5073092;28;20032;-74
2023/06/19 05:42:19;;;;;;;16.70;10.57;;;;;;;;;;5074512;28;20081;-78
2023/06/19 05:44:54;;;;;;;12.80;10.93;;;;;;;;;;5074038;28;20407;-78
2023/06/19 05:47:20;;;;;;;12.07;10.00;;;;;;;;;;5055997;28;20108;-78
2023/06/19 05:49:48;;;;;;;12.93;10.30;;;;;;;;;;5073649;28;20048;-78
2023/06/19 05:52:30;;;;;;;10.38;8.52;;;;;;;;;;5073483;28;20008;-76
2023/06/19 05:54:58;;;;;;;10.88;8.40;;;;;;;;;;5073631;28;20022;-77
2023/06/19 05:57:26;;;;;;;10.40;9.30;;;;;;;;;;5073655;28;20016;-78
2023/06/19 05:59:52;;;;;;;12.77;9.35;;;;;;;;;;5074597;28;20457;-78
2023/06/19 06:02:21;;;;;;;11.93;9.23;;;;;;;;;;5075357;28;20013;-77
2023/06/19 06:04:46;;;;;;;11.05;9.85;;;;;;;;;;5074590;28;20046;-76
2023/06/19 06:07:13;;;;;;;10.65;8.82;;;;;;;;;;5074364;28;20487;-76
2023/06/19 06:09:39;;;;;;;10.32;8.63;;;;;;;;;;5074172;28;20119;-76
2023/06/19 06:12:06;;;;;;;9.45;8.60;;;;;;;;;;5074607;28;20021;-77
2023/06/19 06:14:32;;;;;;;10.93;8.02;;;;;;;;;;5056161;28;20016;-77
2023/06/19 06:16:57;;;;;;;10.63;8.18;;;;;;;;;;5074375;28;20074;-77
2023/06/19 06:19:23;;;;;;;9.02;8.13;;;;;;;;;;5074148;28;20021;-77
2023/06/19 06:21:50;;;;;;;11.98;8.75;;;;;;;;;;5073996;28;20020;-76
2023/06/19 06:24:17;;;;;;;10.25;8.85;;;;;;;;;;5074227;28;20044;-77
2023/06/19 06:26:45;;;;;;;10.13;7.80;;;;;;;;;;5074064;28;20043;-77
2023/06/19 06:29:11;;;;;;;12.88;9.00;;;;;;;;;;5073940;28;20044;-77
2023/06/19 06:31:38;;;;;;;9.88;8.63;;;;;;;;;;5074200;28;20376;-76
2023/06/19 06:34:04;;;;;;;10.50;8.65;;;;;;;;;;5072438;28;20363;-77
2023/06/19 06:36:30;;;;;;;11.85;9.23;;;;;;;;;;5056106;28;20384;-77
2023/06/19 06:38:55;;;;;;;10.68;8.85;;;;;;;;;;5055521;28;20524;-76
2023/06/19 06:41:22;;;;;;;13.50;8.27;;;;;;;;;;5073016;28;20170;-78
2023/06/19 06:43:47;;;;;;;10.32;8.75;;;;;;;;;;5073513;28;20427;-77
2023/06/19 06:46:14;;;;;;;12.65;9.75;;;;;;;;;;5073921;28;20013;-76
2023/06/19 06:48:40;;;;;;;12.60;8.95;;;;;;;;;;5074249;28;20024;-78
2023/06/19 06:51:06;;;;;;;11.90;9.15;;;;;;;;;;5073821;28;20048;-78
2023/06/19 06:53:34;;;;;;;11.32;9.15;;;;;;;;;;5073712;28;20055;-79
2023/06/19 06:56:00;;;;;;;10.68;8.07;;;;;;;;;;5073580;28;20019;-78
2023/06/19 06:58:27;;;;;;;10.57;9.48;;;;;;;;;;5073763;28;20094;-76
2023/06/19 07:00:53;;;;;;;12.82;9.63;;;;;;;;;;5055721;28;20056;-77
2023/06/19 07:03:19;;;;;;;10.82;8.80;;;;;;;;;;5055577;28;20056;-75
2023/06/19 07:05:45;;;;;;;11.50;9.32;;;;;;;;;;5065763;28;20491;-76
2023/06/19 07:08:11;;;;;;;10.48;9.48;;;;;;;;;;5038823;28;20115;-76
2023/06/19 07:10:37;;;;;;;14.27;9.80;;;;;;;;;;5073381;28;20081;-78
2023/06/19 07:13:03;;;;;;;9.80;8.75;;;;;;;;;;5073431;28;20095;-77
2023/06/19 07:15:29;;;;;;;14.88;9.57;;;;;;;;;;5073373;28;20373;-77
2023/06/19 07:17:55;;;;;;;11.67;9.33;;;;;;;;;;5073627;28;20365;-77
2023/06/19 07:20:22;;;;;;;13.57;8.88;;;;;;;;;;5073426;28;20388;-77
2023/06/19 07:22:58;;;;;;;11.45;8.48;;;;;;;;;;5055776;28;20050;-76
2023/06/19 07:25:25;;;;;;;10.50;9.48;;;;;;;;;;5073448;28;20017;-77
2023/06/19 07:27:51;;;;;;;15.13;8.93;;;;;;;;;;5066228;28;20045;-77
2023/06/19 07:30:19;;;;;;;10.50;8.48;;;;;;;;;;5052958;28;20087;-77
2023/06/19 07:32:45;;;;;;;9.68;8.55;;;;;;;;;;5052994;28;20091;-78
2023/06/19 07:35:12;;;;;;;9.45;8.52;;;;;;;;;;5052289;28;20584;-78
2023/06/19 07:37:38;;;;;;;10.02;9.02;;;;;;;;;;5053268;28;20096;-78
2023/06/19 07:40:04;;;;;;;10.23;8.50;;;;;;;;;;5053220;28;20027;-76
2023/06/19 07:42:29;;;;;;;10.82;8.43;;;;;;;;;;5053091;28;20025;-77
2023/06/19 07:44:55;;;;;;;9.30;7.67;;;;;;;;;;5053102;28;20025;-79
2023/06/19 07:47:20;;;;;;;9.73;8.03;;;;;;;;;;5052163;28;20273;-76
2023/06/19 07:49:46;;;;;;;8.95;7.97;;;;;;;;;;5053599;28;20064;-84
2023/06/19 07:52:13;;;;;;;8.80;7.35;;;;;;;;;;5053057;28;20017;-73
2023/06/19 07:54:55;;;;;;;10.27;8.23;;;;;;;;;;5038858;28;20029;-75
2023/06/19 07:57:42;;;;;;;10.55;8.10;;;;;;;;;;5038980;28;20505;-75
2023/06/19 08:00:10;;;;;;;8.52;7.57;;;;;;;;;;5056211;28;20021;-76
2023/06/19 08:02:36;;;;;;;8.63;7.53;;;;;;;;;;5057529;28;20454;-76
2023/06/19 08:05:02;;;;;;;10.00;8.23;;;;;;;;;;5056704;28;20035;-73
2023/06/19 08:07:29;;;;;;;10.95;7.30;;;;;;;;;;5056758;28;20031;-74
2023/06/19 08:09:54;;;;;;;8.63;7.32;;;;;;;;;;5057015;28;20025;-75
2023/06/19 08:12:20;;;;;;;10.00;7.97;;;;;;;;;;5056505;28;20036;-74
2023/06/19 08:14:45;;;;;;;9.48;7.05;;;;;;;;;;5055670;28;20041;-75
2023/06/19 08:17:10;;;;;;;9.83;6.97;;;;;;;;;;5056537;28;20029;-73
2023/06/19 08:19:38;;;;;;;9.93;6.93;;;;;;;;;;5056830;28;20016;-77
2023/06/19 08:22:05;;;;;;;11.52;7.53;;;;;;;;;;5055916;28;20009;-72
2023/06/19 08:24:31;;;;;;;7.60;6.78;;;;;;;;;;5057423;28;20025;-73
2023/06/19 08:26:56;;;;;;;8.27;6.60;;;;;;;;;;5057314;28;20024;-76
2023/06/19 08:29:22;;;;;;;10.77;7.43;;;;;;;;;;5075644;28;20048;-77
2023/06/19 08:31:49;;;;;;;7.43;6.72;;;;;;;;;;5076946;28;20047;-76
2023/06/19 08:34:14;;;;;;;8.80;7.10;;;;;;;;;;5076377;28;20130;-76
2023/06/19 08:36:41;;;;;;;8.52;7.00;;;;;;;;;;5076349;28;20091;-75
2023/06/19 08:39:10;;;;;;;8.05;6.30;;;;;;;;;;5092843;28;20098;-76
2023/06/19 08:41:39;;;;;;;9.57;6.20;;;;;;;;;;5096727;28;20082;-75
2023/06/19 08:44:05;;;;;;;9.68;6.63;;;;;;;;;;5096491;28;20020;-75
2023/06/19 08:46:30;;;;;;;9.23;6.40;;;;;;;;;;5096537;28;20020;-75
2023/06/19 08:48:55;;;;;;;6.40;5.80;;;;;;;;;;5096510;28;20371;-75
2023/06/19 08:51:21;;;;;;;7.78;6.20;;;;;;;;;;5096505;28;20316;-74
2023/06/19 08:53:52;;;;;;;7.10;6.40;;;;;;;;;;5077716;28;20107;-75
2023/06/19 08:56:17;;;;;;;6.53;5.78;;;;;;;;;;5096331;28;20027;-76
2023/06/19 08:58:42;;;;;;;8.80;5.30;;;;;;;;;;5096210;28;20016;-79
2023/06/19 09:01:08;;;;;;;9.70;5.15;;;;;;;;;;5078260;28;20025;-77
2023/06/19 09:03:33;;;;;;;6.68;5.38;;;;;;;;;;5077310;28;20023;-78
2023/06/19 09:06:08;;;;;;;6.10;4.50;;;;;;;;;;5094281;28;20059;-73
2023/06/19 09:08:34;;;;;;;5.88;4.13;;;;;;;;;;5096350;28;20282;-76
2023/06/19 09:11:03;;;;;;;6.03;4.65;;;;;;;;;;5077891;28;20077;-78
2023/06/19 09:13:29;;;;;;;5.43;4.30;;;;;;;;;;5095721;28;20065;-79
2023/06/19 09:16:02;;;;;;;5.63;4.43;;;;;;;;;;5077881;28;20020;-78
2023/06/19 09:18:28;;;;;;;5.28;4.57;;;;;;;;;;5095850;28;20027;-78
2023/06/19 09:20:54;;;;;;;4.82;4.30;;;;;;;;;;5077481;28;20181;-78
2023/06/19 09:23:20;;;;;;;6.65;4.22;;;;;;;;;;5095663;28;20122;-78
2023/06/19 09:25:52;;;;;;;5.85;4.03;;;;;;;;;;5077387;28;20035;-75
2023/06/19 09:28:22;;;;;;;6.22;4.30;;;;;;;;;;5095142;28;20569;-75
2023/06/19 09:30:54;;;;;;;4.47;4.07;;;;;;;;;;5095533;28;20028;-76
2023/06/19 09:33:20;;;;;;;4.50;3.90;;;;;;;;;;5077139;28;20024;-74
2023/06/19 09:35:46;;;;;;;4.45;4.03;;;;;;;;;;5095193;28;20026;-76
2023/06/19 09:38:12;;;;;;;4.20;3.90;;;;;;;;;;5077015;28;20028;-76
2023/06/19 09:40:38;;;;;;;7.47;3.70;;;;;;;;;;5095405;28;20042;-77
2023/06/19 09:43:04;;;;;;;4.65;3.95;;;;;;;;;;5095484;28;20024;-77
2023/06/19 09:45:31;;;;;;;5.80;4.72;;;;;;;;;;5095223;28;20020;-75
2023/06/19 09:47:56;;;;;;;3.90;3.50;;;;;;;;;;5094777;28;20012;-75
2023/06/19 09:50:26;;;;;;;4.88;4.13;;;;;;;;;;5094853;28;20095;-76
2023/06/19 09:52:51;;;;;;;4.30;3.70;;;;;;;;;;5077394;28;20411;-76
2023/06/19 09:55:18;;;;;;;3.97;3.63;;;;;;;;;;5095123;28;20020;-78
2023/06/19 09:57:45;;;;;;;5.75;3.45;;;;;;;;;;5095275;28;20074;-76
2023/06/19 10:00:18;;;;;;;3.95;3.63;;;;;;;;;;5094928;28;20047;-77
2023/06/19 10:02:45;;;;;;;4.25;3.42;;;;;;;;;;5094988;28;20035;-76
2023/06/19 10:05:14;;;;;;;3.83;3.50;;;;;;;;;;5077075;28;20024;-76
2023/06/19 10:07:42;;;;;;;7.55;3.53;;;;;;;;;;5095042;28;20091;-76
2023/06/19 10:10:09;;;;;;;4.50;3.92;;;;;;;;;;5093088;28;20024;-78
2023/06/19 10:12:45;;;;;;;4.95;4.10;;;;;;;;;;5095185;28;20024;-76
2023/06/19 10:15:17;;;;;;;4.60;4.20;;;;;;;;;;5094412;28;20076;-77
2023/06/19 10:17:43;;;;;;;6.03;4.13;;;;;;;;;;5094821;28;20020;-76
2023/06/19 10:20:19;;;;;;;4.88;4.47;;;;;;;;;;5095347;28;20016;-78
2023/06/19 10:23:05;;;;;;;5.57;4.60;;;;;;;;;;5094847;28;20016;-75
2023/06/19 10:25:31;;;;;;;4.60;4.20;;;;;;;;;;5094127;28;20020;-76
2023/06/19 10:28:01;;;;;;;4.18;3.78;;;;;;;;;;5076473;28;20052;-74
2023/06/19 10:30:29;;;;;;;4.65;4.10;;;;;;;;;;5094202;28;20043;-73
2023/06/19 10:32:55;;;;;;;4.20;3.90;;;;;;;;;;5094171;28;20024;-74
2023/06/19 10:35:21;;;;;;;4.90;4.40;;;;;;;;;;5093924;28;20016;-70
2023/06/19 10:37:47;;;;;;;4.45;4.05;;;;;;;;;;5094372;28;20063;-70
2023/06/19 10:40:13;;;;;;;4.25;3.95;;;;;;;;;;5075972;28;20020;-70
2023/06/19 10:42:40;;;;;;;4.10;3.80;;;;;;;;;;5094191;28;20028;-69
2023/06/19 10:45:06;;;;;;;4.25;3.85;;;;;;;;;;5093975;28;20024;-69
2023/06/19 10:47:32;;;;;;;4.32;3.92;;;;;;;;;;5094132;28;20131;-70
2023/06/19 10:49:57;;;;;;;5.32;4.28;;;;;;;;;;5093782;28;20515;-68
2023/06/19 10:52:23;;;;;;;4.73;3.93;;;;;;;;;;5094094;28;20024;-68
2023/06/19 10:54:57;;;;;;;4.32;3.92;;;;;;;;;;5093684;28;20020;-68
2023/06/19 10:57:29;;;;;;;5.75;4.20;;;;;;;;;;5093639;28;20374;-67
2023/06/19 11:00:13;;;;;;;4.75;3.70;;;;;;;;;;5093658;28;20049;-68
2023/06/19 11:02:39;;;;;;;3.88;3.50;;;;;;;;;;5093649;28;20149;-69
2023/06/19 11:05:05;;;;;;;5.00;3.85;;;;;;;;;;5093700;28;20020;-69
2023/06/19 11:07:31;;;;;;;4.88;4.05;;;;;;;;;;5093631;28;20031;-68
2023/06/19 11:09:57;;;;;;;4.28;3.72;;;;;;;;;;5093492;28;20028;-66
2023/06/19 11:12:22;;;;;;;5.03;4.20;;;;;;;;;;5094302;28;20012;-66
2023/06/19 11:14:50;;;;;;;4.53;4.13;;;;;;;;;;5093614;28;20596;-71
2023/06/19 11:17:18;;;;;;;4.65;4.25;;;;;;;;;;5093777;28;20016;-71
2023/06/19 11:19:44;;;;;;;4.38;3.97;;;;;;;;;;5093481;28;20032;-72
2023/06/19 11:22:09;;;;;;;6.45;4.45;;;;;;;;;;5093887;28;20044;-71
2023/06/19 11:24:35;;;;;;;4.15;3.78;;;;;;;;;;5093651;28;20515;-73
2023/06/19 11:27:00;;;;;;;6.15;3.92;;;;;;;;;;5092626;28;20020;-70
2023/06/19 11:29:28;;;;;;;5.03;3.75;;;;;;;;;;5093245;28;20064;-72
2023/06/19 11:32:03;;;;;;;5.75;4.00;;;;;;;;;;5093408;28;20021;-72
2023/06/19 11:34:33;;;;;;;4.60;4.20;;;;;;;;;;5093363;28;20060;-71
2023/06/19 11:36:58;;;;;;;4.90;3.90;;;;;;;;;;5093330;28;20022;-70
2023/06/19 11:39:24;;;;;;;4.13;3.73;;;;;;;;;;5092455;28;20028;-71
2023/06/19 11:41:51;;;;;;;4.78;3.78;;;;;;;;;;5074613;28;20404;-72
2023/06/19 11:44:16;;;;;;;4.60;4.20;;;;;;;;;;5087178;28;20056;-70
2023/06/19 11:46:41;;;;;;;5.97;3.67;;;;;;;;;;5093218;28;20515;-71
2023/06/19 11:49:12;;;;;;;4.88;4.40;;;;;;;;;;5074837;28;20278;-71
2023/06/19 11:51:37;;;;;;;4.63;4.20;;;;;;;;;;5092890;28;20024;-70
2023/06/19 11:54:05;;;;;;;5.03;4.10;;;;;;;;;;5093185;28;20024;-71
2023/06/19 11:56:30;;;;;;;5.85;4.03;;;;;;;;;;5075061;28;20047;-71
2023/06/19 11:58:55;;;;;;;6.37;4.63;;;;;;;;;;5093320;28;20016;-74
2023/06/19 12:01:23;;;;;;;5.13;4.20;;;;;;;;;;5093368;28;20021;-73
2023/06/19 12:03:49;;;;;;;4.68;4.28;;;;;;;;;;5076414;28;20583;-72
2023/06/19 12:06:16;;;;;;;5.00;4.55;;;;;;;;;;5093880;28;20020;-71
2023/06/19 12:08:42;;;;;;;5.95;4.60;;;;;;;;;;5076719;28;20063;-72
2023/06/19 12:11:09;;;;;;;6.30;4.57;;;;;;;;;;5093360;28;20123;-70
2023/06/19 12:13:36;;;;;;;4.68;4.20;;;;;;;;;;5093088;28;20059;-72
2023/06/19 12:16:03;;;;;;;5.20;4.70;;;;;;;;;;5092166;28;20384;-69
2023/06/19 12:18:28;;;;;;;7.50;4.97;;;;;;;;;;5092871;28;20058;-73
2023/06/19 12:20:54;;;;;;;5.33;4.90;;;;;;;;;;5092994;28;20048;-73
2023/06/19 12:23:20;;;;;;;4.70;4.27;;;;;;;;;;5091803;28;20040;-74
2023/06/19 12:25:46;;;;;;;5.85;4.70;;;;;;;;;;5092775;28;20035;-70
2023/06/19 12:28:16;;;;;;;5.60;5.07;;;;;;;;;;5091854;28;20044;-70
2023/06/19 12:30:41;;;;;;;5.93;4.27;;;;;;;;;;5092883;28;20035;-73
2023/06/19 12:33:07;;;;;;;7.75;4.82;;;;;;;;;;5074557;28;20282;-73
2023/06/19 12:35:32;;;;;;;7.17;5.40;;;;;;;;;;5093100;28;20023;-73
2023/06/19 12:37:57;;;;;;;6.45;4.78;;;;;;;;;;5092304;28;20734;-73
2023/06/19 12:40:23;;;;;;;5.20;4.70;;;;;;;;;;5094986;28;20023;-73
2023/06/19 12:42:51;;;;;;;8.43;5.37;;;;;;;;;;5094966;28;20262;-74
2023/06/19 12:45:28;;;;;;;10.40;4.70;;;;;;;;;;5076599;28;20031;-75
2023/06/19 12:47:55;;;;;;;5.20;4.70;;;;;;;;;;5095060;28;20024;-75
2023/06/19 12:50:21;;;;;;;5.17;4.57;;;;;;;;;;5094985;28;20019;-73
2023/06/19 12:52:46;;;;;;;5.88;4.55;;;;;;;;;;5095223;28;20297;-72
2023/06/19 12:55:11;;;;;;;5.53;4.90;;;;;;;;;;5093991;28;20069;-73
2023/06/19 12:57:36;;;;;;;6.00;4.50;;;;;;;;;;5093972;28;20047;-74
2023/06/19 13:00:05;;;;;;;7.72;4.88;;;;;;;;;;5075777;28;20403;-74
2023/06/19 13:02:32;;;;;;;5.97;4.40;;;;;;;;;;5076065;28;20020;-75
2023/06/19 13:04:58;;;;;;;9.27;5.07;;;;;;;;;;5092841;28;20123;-74
2023/06/19 13:07:23;;;;;;;7.28;5.22;;;;;;;;;;5094091;28;20099;-74
2023/06/19 13:09:48;;;;;;;6.57;4.95;;;;;;;;;;5095129;28;20592;-73
2023/06/19 13:12:19;;;;;;;5.23;4.60;;;;;;;;;;5094595;28;20504;-72
2023/06/19 13:14:44;;;;;;;5.38;4.72;;;;;;;;;;5076326;28;20309;-73
2023/06/19 13:17:16;;;;;;;6.70;4.67;;;;;;;;;;5094653;28;20403;-76
2023/06/19 13:19:43;;;;;;;6.13;4.93;;;;;;;;;;5095563;28;20265;-73
2023/06/19 13:22:08;;;;;;;5.18;4.78;;;;;;;;;;5095782;28;20028;-75
2023/06/19 13:24:36;;;;;;;6.97;4.70;;;;;;;;;;5094991;28;20042;-74
2023/06/19 13:27:03;;;;;;;5.63;5.10;;;;;;;;;;5095162;28;20464;-74
2023/06/19 13:29:29;;;;;;;5.43;4.90;;;;;;;;;;5075133;28;20563;-74
2023/06/19 13:31:55;;;;;;;5.90;4.47;;;;;;;;;;5075736;28;20358;-73
2023/06/19 13:34:22;;;;;;;7.05;4.65;;;;;;;;;;5075175;28;20103;-72
2023/06/19 13:36:49;;;;;;;5.15;4.75;;;;;;;;;;5074903;28;20016;-74
2023/06/19 13:39:19;;;;;;;5.00;4.47;;;;;;;;;;5057003;28;20056;-74
2023/06/19 13:41:45;;;;;;;5.50;5.00;;;;;;;;;;5057622;28;20066;-74
2023/06/19 13:44:12;;;;;;;8.05;5.15;;;;;;;;;;5056830;28;20278;-73
2023/06/19 13:46:38;;;;;;;5.75;5.10;;;;;;;;;;5075139;28;20028;-74
2023/06/19 13:49:03;;;;;;;5.75;5.20;;;;;;;;;;5056960;28;20501;-73
2023/06/19 13:51:29;;;;;;;8.23;5.20;;;;;;;;;;5074111;28;20031;-73
2023/06/19 13:53:54;;;;;;;6.07;5.35;;;;;;;;;;5040080;28;20086;-74
2023/06/19 13:56:23;;;;;;;6.07;4.90;;;;;;;;;;5056790;28;20024;-75
2023/06/19 13:58:48;;;;;;;5.32;4.65;;;;;;;;;;5056620;28;20032;-74
2023/06/19 14:01:14;;;;;;;5.25;4.75;;;;;;;;;;5061547;28;20405;-73
2023/06/19 14:03:39;;;;;;;6.85;4.82;;;;;;;;;;5036619;28;20462;-71
2023/06/19 14:06:13;;;;;;;6.13;5.40;;;;;;;;;;5054461;28;20048;-71
2023/06/19 14:08:40;;;;;;;6.47;5.57;;;;;;;;;;5054429;28;20092;-72
2023/06/19 14:11:06;;;;;;;6.35;5.00;;;;;;;;;;5054701;28;20029;-70
2023/06/19 14:13:34;;;;;;;6.20;4.80;;;;;;;;;;5054703;28;20096;-71
2023/06/19 14:16:14;;;;;;;7.47;5.00;;;;;;;;;;5054450;28;20100;-72
2023/06/19 14:18:39;;;;;;;5.73;5.23;;;;;;;;;;5054380;28;20481;-72
2023/06/19 14:21:06;;;;;;;7.00;5.03;;;;;;;;;;5054286;28;20268;-69
2023/06/19 14:23:34;;;;;;;5.20;4.68;;;;;;;;;;5053491;28;20396;-69
2023/06/19 14:26:00;;;;;;;5.95;5.07;;;;;;;;;;5036610;28;20029;-70
2023/06/19 14:28:25;;;;;;;7.03;5.18;;;;;;;;;;5063972;28;20438;-71
2023/06/19 14:30:50;;;;;;;5.78;4.82;;;;;;;;;;5073827;28;20453;-70